sensor_id;sensor_type;location;lat;lon;timestamp;temperature;humidity
61398;DHT22;47267;48.130;-2.040;2022-12-16T11:35:31;17.40;38.30
61398;DHT22;47267;48.130;-2.040;2022-12-16T11:38:46;18.20;39.60
61398;DHT22;47267;48.130;-2.040;2022-12-16T11:50:09;18.20;39.50
61398;DHT22;47267;48.130;-2.040;2022-12-16T14:39:57;18.20;39.50
61398;DHT22;47267;48.130;-2.040;2022-12-16T14:42:41;19.50;41.00
61398;DHT22;47267;48.130;-2.040;2022-12-16T14:45:30;19.60;41.00
61398;DHT22;47267;48.130;-2.040;2022-12-16T14:48:37;19.70;41.00
61398;DHT22;47267;48.130;-2.040;2022-12-16T14:51:23;19.70;40.90
61398;DHT22;47267;48.130;-2.040;2022-12-16T14:54:20;19.80;40.90
61398;DHT22;47267;48.130;-2.040;2022-12-16T14:57:16;19.90;40.90
61398;DHT22;47267;48.130;-2.040;2022-12-16T15:05:51;19.90;40.90
61398;DHT22;47267;48.130;-2.040;2022-12-16T15:08:47;19.90;40.80
61398;DHT22;47267;48.130;-2.040;2022-12-16T15:11:32;20.00;40.90
61398;DHT22;47267;48.130;-2.040;2022-12-16T15:14:23;19.90;40.90
61398;DHT22;47267;48.130;-2.040;2022-12-16T15:17:24;20.00;40.90
61398;DHT22;47267;48.130;-2.040;2022-12-16T15:20:18;20.00;40.90
61398;DHT22;47267;48.130;-2.040;2022-12-16T15:23:03;20.00;40.90
61398;DHT22;47267;48.130;-2.040;2022-12-16T15:25:55;20.00;40.90
61398;DHT22;47267;48.130;-2.040;2022-12-16T15:28:42;20.00;40.90
61398;DHT22;47267;48.130;-2.040;2022-12-16T15:31:32;20.00;40.80
61398;DHT22;47267;48.130;-2.040;2022-12-16T15:34:28;20.00;40.80
61398;DHT22;47267;48.130;-2.040;2022-12-16T15:37:21;20.00;40.80
61398;DHT22;47267;48.130;-2.040;2022-12-16T15:40:28;20.00;40.80
61398;DHT22;47267;48.130;-2.040;2022-12-16T15:43:29;20.10;40.90
61398;DHT22;47267;48.130;-2.040;2022-12-16T15:49:03;20.00;40.80
61398;DHT22;47267;48.130;-2.040;2022-12-16T15:51:48;20.00;40.80
61398;DHT22;47267;48.130;-2.040;2022-12-16T15:54:49;20.00;40.80
61398;DHT22;47267;48.130;-2.040;2022-12-16T15:57:34;20.00;40.80
61398;DHT22;47267;48.130;-2.040;2022-12-16T16:03:39;20.00;40.80
61398;DHT22;47267;48.130;-2.040;2022-12-16T16:06:25;20.00;40.80
61398;DHT22;47267;48.130;-2.040;2022-12-16T16:09:14;20.00;40.90
61398;DHT22;47267;48.130;-2.040;2022-12-16T16:11:59;20.00;40.80
61398;DHT22;47267;48.130;-2.040;2022-12-16T16:14:43;19.90;40.70
61398;DHT22;47267;48.130;-2.040;2022-12-16T16:17:27;19.90;40.80
61398;DHT22;47267;48.130;-2.040;2022-12-16T16:20:16;19.90;40.80
61398;DHT22;47267;48.130;-2.040;2022-12-16T16:23:01;19.90;40.70
61398;DHT22;47267;48.130;-2.040;2022-12-16T16:25:46;19.90;40.70
61398;DHT22;47267;48.130;-2.040;2022-12-16T16:28:32;19.90;40.80
61398;DHT22;47267;48.130;-2.040;2022-12-16T16:31:16;19.90;40.60
61398;DHT22;47267;48.130;-2.040;2022-12-16T16:34:02;19.90;40.70
61398;DHT22;47267;48.130;-2.040;2022-12-16T16:36:54;19.90;40.80
61398;DHT22;47267;48.130;-2.040;2022-12-16T16:39:39;19.90;40.80
61398;DHT22;47267;48.130;-2.040;2022-12-16T16:42:23;19.90;40.70
61398;DHT22;47267;48.130;-2.040;2022-12-16T16:45:08;19.80;40.70
61398;DHT22;47267;48.130;-2.040;2022-12-16T16:48:13;19.80;40.70
61398;DHT22;47267;48.130;-2.040;2022-12-16T16:50:59;19.80;40.70
61398;DHT22;47267;48.130;-2.040;2022-12-16T16:53:44;19.80;40.70
61398;DHT22;47267;48.130;-2.040;2022-12-16T17:07:29;19.80;40.70
61398;DHT22;47267;48.130;-2.040;2022-12-16T17:10:15;19.70;40.70
61398;DHT22;47267;48.130;-2.040;2022-12-16T17:12:59;19.70;40.60
61398;DHT22;47267;48.130;-2.040;2022-12-16T17:15:44;19.60;40.50
61398;DHT22;47267;48.130;-2.040;2022-12-16T17:18:28;19.60;40.50
61398;DHT22;47267;48.130;-2.040;2022-12-16T17:21:12;19.60;40.50
61398;DHT22;47267;48.130;-2.040;2022-12-16T17:23:57;19.60;40.50
61398;DHT22;47267;48.130;-2.040;2022-12-16T18:35:38;19.60;40.50
61398;DHT22;47267;48.130;-2.040;2022-12-16T18:38:23;18.90;40.50
61398;DHT22;47267;48.130;-2.040;2022-12-16T18:41:16;18.90;40.50
61398;DHT22;47267;48.130;-2.040;2022-12-16T18:44:01;18.90;40.50
61398;DHT22;47267;48.130;-2.040;2022-12-16T18:46:46;18.80;40.50
61398;DHT22;47267;48.130;-2.040;2022-12-16T18:49:31;18.80;40.50
61398;DHT22;47267;48.130;-2.040;2022-12-16T18:52:16;18.80;40.50
61398;DHT22;47267;48.130;-2.040;2022-12-16T18:55:00;18.70;40.60
61398;DHT22;47267;48.130;-2.040;2022-12-16T18:57:45;18.70;40.60
61398;DHT22;47267;48.130;-2.040;2022-12-16T19:00:29;18.70;40.60
61398;DHT22;47267;48.130;-2.040;2022-12-16T19:03:13;18.70;40.60
61398;DHT22;47267;48.130;-2.040;2022-12-16T19:05:57;18.70;40.60
61398;DHT22;47267;48.130;-2.040;2022-12-16T19:08:41;18.60;40.70
61398;DHT22;47267;48.130;-2.040;2022-12-16T19:11:28;18.60;40.70
61398;DHT22;47267;48.130;-2.040;2022-12-16T19:14:12;18.60;40.80
61398;DHT22;47267;48.130;-2.040;2022-12-16T19:16:57;18.50;40.80
61398;DHT22;47267;48.130;-2.040;2022-12-16T19:19:43;18.50;40.90
61398;DHT22;47267;48.130;-2.040;2022-12-16T19:22:27;18.50;40.90
61398;DHT22;47267;48.130;-2.040;2022-12-16T19:25:11;18.50;41.00
61398;DHT22;47267;48.130;-2.040;2022-12-16T19:27:55;18.40;41.00
61398;DHT22;47267;48.130;-2.040;2022-12-16T19:30:39;18.40;41.00
61398;DHT22;47267;48.130;-2.040;2022-12-16T19:33:24;18.40;41.00
61398;DHT22;47267;48.130;-2.040;2022-12-16T19:36:08;18.40;41.10
61398;DHT22;47267;48.130;-2.040;2022-12-16T19:38:52;18.40;41.10
61398;DHT22;47267;48.130;-2.040;2022-12-16T19:41:36;18.30;41.00
61398;DHT22;47267;48.130;-2.040;2022-12-16T19:44:20;18.30;41.10
61398;DHT22;47267;48.130;-2.040;2022-12-16T19:47:04;18.30;41.10
61398;DHT22;47267;48.130;-2.040;2022-12-16T19:49:48;18.30;41.70
61398;DHT22;47267;48.130;-2.040;2022-12-16T19:52:33;18.30;41.10
61398;DHT22;47267;48.130;-2.040;2022-12-16T19:55:17;18.30;41.10
61398;DHT22;47267;48.130;-2.040;2022-12-16T19:58:01;18.20;41.10
61398;DHT22;47267;48.130;-2.040;2022-12-16T20:00:46;18.20;41.00
61398;DHT22;47267;48.130;-2.040;2022-12-16T20:03:30;18.20;41.10
61398;DHT22;47267;48.130;-2.040;2022-12-16T20:06:14;18.20;41.10
61398;DHT22;47267;48.130;-2.040;2022-12-16T20:08:59;18.20;41.10
61398;DHT22;47267;48.130;-2.040;2022-12-16T20:11:43;18.10;41.00
61398;DHT22;47267;48.130;-2.040;2022-12-16T20:14:27;18.10;41.00
61398;DHT22;47267;48.130;-2.040;2022-12-16T20:17:12;18.20;41.10
61398;DHT22;47267;48.130;-2.040;2022-12-16T20:19:56;18.10;41.00
61398;DHT22;47267;48.130;-2.040;2022-12-16T20:22:40;18.10;41.00
61398;DHT22;47267;48.130;-2.040;2022-12-16T20:25:25;18.10;41.00
61398;DHT22;47267;48.130;-2.040;2022-12-16T20:28:10;18.10;40.90
61398;DHT22;47267;48.130;-2.040;2022-12-16T20:31:02;18.10;40.90
61398;DHT22;47267;48.130;-2.040;2022-12-16T20:33:54;18.10;41.00
61398;DHT22;47267;48.130;-2.040;2022-12-16T20:36:39;18.10;40.90
61398;DHT22;47267;48.130;-2.040;2022-12-16T20:39:24;18.00;40.80
61398;DHT22;47267;48.130;-2.040;2022-12-16T20:42:09;18.00;40.80
61398;DHT22;47267;48.130;-2.040;2022-12-16T20:44:53;18.00;40.80
61398;DHT22;47267;48.130;-2.040;2022-12-16T20:47:37;18.00;40.90
61398;DHT22;47267;48.130;-2.040;2022-12-16T20:50:21;18.00;40.80
61398;DHT22;47267;48.130;-2.040;2022-12-16T20:53:05;18.00;40.80
61398;DHT22;47267;48.130;-2.040;2022-12-16T20:55:49;18.00;40.80
61398;DHT22;47267;48.130;-2.040;2022-12-16T20:58:33;18.00;40.80
61398;DHT22;47267;48.130;-2.040;2022-12-16T21:01:18;17.90;40.70
61398;DHT22;47267;48.130;-2.040;2022-12-16T21:04:02;17.90;40.70
61398;DHT22;47267;48.130;-2.040;2022-12-16T21:06:47;17.90;40.70
61398;DHT22;47267;48.130;-2.040;2022-12-16T21:09:31;17.90;40.70
61398;DHT22;47267;48.130;-2.040;2022-12-16T21:12:16;17.90;40.70
61398;DHT22;47267;48.130;-2.040;2022-12-16T21:15:00;17.90;40.60
61398;DHT22;47267;48.130;-2.040;2022-12-16T21:17:44;17.80;40.60
61398;DHT22;47267;48.130;-2.040;2022-12-16T21:20:28;17.80;40.60
61398;DHT22;47267;48.130;-2.040;2022-12-16T21:23:12;17.80;40.60
61398;DHT22;47267;48.130;-2.040;2022-12-16T21:26:04;17.80;41.10
61398;DHT22;47267;48.130;-2.040;2022-12-16T21:28:48;17.80;40.60
61398;DHT22;47267;48.130;-2.040;2022-12-16T21:31:33;17.80;40.50
61398;DHT22;47267;48.130;-2.040;2022-12-16T21:34:18;17.80;40.50
61398;DHT22;47267;48.130;-2.040;2022-12-16T21:37:02;17.70;40.40
61398;DHT22;47267;48.130;-2.040;2022-12-16T21:39:47;17.80;40.50
61398;DHT22;47267;48.130;-2.040;2022-12-16T21:42:32;17.70;40.40
61398;DHT22;47267;48.130;-2.040;2022-12-16T21:45:17;17.70;40.40
61398;DHT22;47267;48.130;-2.040;2022-12-16T21:48:01;17.70;40.40
61398;DHT22;47267;48.130;-2.040;2022-12-16T21:50:51;17.70;40.40
61398;DHT22;47267;48.130;-2.040;2022-12-16T21:53:35;17.70;40.40
61398;DHT22;47267;48.130;-2.040;2022-12-16T21:56:19;17.70;40.40
61398;DHT22;47267;48.130;-2.040;2022-12-16T21:59:04;17.70;40.30
61398;DHT22;47267;48.130;-2.040;2022-12-16T22:02:12;17.60;40.30
61398;DHT22;47267;48.130;-2.040;2022-12-16T22:04:56;17.60;40.30
61398;DHT22;47267;48.130;-2.040;2022-12-16T22:07:41;17.60;40.30
61398;DHT22;47267;48.130;-2.040;2022-12-16T22:10:25;17.60;40.30
